KDRA/DRA METAR and TAF weather

Enter ICAO airport designator
Station Type Date Time Source
KDRA METAR 2018/07/21 12:55 UTC NOAA

KDRA 211255Z AUTO 35004KT 10SM FEW095 27/12 A3000 RMK AO2 SLP099 T02720117


Station Type Date Time Source
KDRA Decoded METAR 2018/07/21 12:55 UTC NOAA

DESERT ROCK AIRPORT, NV, United States (KDRA) 36-38N 116-02W 1006M
Jul 21, 2018 - 08:55 AM EDT / 2018.07.21 1255 UTC
Wind: from the N (350 degrees) at 5 MPH (4 KT):0
Visibility: 10 mile(s):0
Sky conditions: mostly clear
Temperature: 81.0 F (27.2 C)
Dew Point: 53.1 F (11.7 C)
Relative Humidity: 38%
Pressure (altimeter): 30 in. Hg (1015 hPa)
ob: KDRA 211255Z AUTO 35004KT 10SM FEW095 27/12 A3000 RMK AO2 SLP099 T02720117
cycle: 13

Station Type Date Time Source
KDRA TAF 2011/12/07 06:36 UTC NOAA

TAF KDRA 070532Z 0706/0806 VRB04KT P6SM SKC


Example: see airport list